createdAt,value
2019-05-10T00:02:18.685Z,59.50
2019-05-10T00:05:10.711Z,61.00
2019-05-10T00:08:02.569Z,61.70
2019-05-10T00:10:35.815Z,60.00
2019-05-10T00:13:11.670Z,63.70
2019-05-10T00:15:45.854Z,64.80
2019-05-10T00:18:20.063Z,64.60
2019-05-10T00:20:56.014Z,65.10
2019-05-10T00:23:30.305Z,66.10
2019-05-10T00:26:04.554Z,66.20
2019-05-10T00:28:39.899Z,65.20
2019-05-10T00:31:14.218Z,66.60
2019-05-10T00:33:48.487Z,67.80
2019-05-10T00:36:22.708Z,67.10
2019-05-10T00:38:57.333Z,67.40
2019-05-10T00:41:34.686Z,66.80
2019-05-10T00:44:09.011Z,66.10
2019-05-10T00:46:43.418Z,65.70
2019-05-10T00:49:18.851Z,66.20
2019-05-10T00:51:53.188Z,65.70
2019-05-10T00:54:29.774Z,65.60
2019-05-10T00:57:04.384Z,65.60
2019-05-10T00:59:38.561Z,65.40
2019-05-10T01:02:12.906Z,66.10
2019-05-10T01:04:47.364Z,65.80
2019-05-10T01:07:21.768Z,64.80
2019-05-10T01:09:56.157Z,64.50
2019-05-10T01:12:30.624Z,64.80
2019-05-10T01:15:05.022Z,63.50
2019-05-10T01:17:40.869Z,62.90
2019-05-10T01:20:16.423Z,62.50
2019-05-10T01:22:50.898Z,61.40
2019-05-10T01:25:48.014Z,62.30
2019-05-10T01:28:22.277Z,62.60
2019-05-10T01:30:56.606Z,61.00
2019-05-10T01:33:32.258Z,60.00
2019-05-10T01:36:06.566Z,59.00
2019-05-10T01:38:42.122Z,59.40
2019-05-10T01:41:16.379Z,59.50
2019-05-10T01:43:51.522Z,58.80
2019-05-10T01:46:26.018Z,58.00
2019-05-10T01:49:00.618Z,57.50
2019-05-10T01:51:34.817Z,57.90
2019-05-10T01:54:10.176Z,57.00
2019-05-10T01:56:44.401Z,56.90
2019-05-10T01:59:18.662Z,56.40
2019-05-10T02:01:54.068Z,55.90
2019-05-10T02:04:29.502Z,55.50
2019-05-10T02:07:03.838Z,55.10
2019-05-10T02:09:38.176Z,54.80
2019-05-10T02:12:13.600Z,54.50
2019-05-10T02:14:48.406Z,55.50
2019-05-10T02:17:22.709Z,56.10
2019-05-10T02:19:56.972Z,55.40
2019-05-10T02:22:31.278Z,54.70
2019-05-10T02:25:05.675Z,54.80
2019-05-10T02:27:40.263Z,54.50
2019-05-10T02:30:14.801Z,53.80
2019-05-10T02:32:49.103Z,53.50
2019-05-10T02:35:23.385Z,53.10
2019-05-10T02:37:57.734Z,53.30
2019-05-10T02:40:32.052Z,53.10
2019-05-10T02:43:06.221Z,53.10
2019-05-10T02:45:40.562Z,53.10
2019-05-10T02:48:14.912Z,53.20
2019-05-10T02:50:49.657Z,53.00
2019-05-10T02:53:23.929Z,52.30
2019-05-10T02:55:59.122Z,52.70
2019-05-10T02:58:34.872Z,52.70
2019-05-10T03:01:10.874Z,52.90
2019-05-10T03:03:46.894Z,53.00
2019-05-10T03:06:23.819Z,53.10
2019-05-10T03:08:58.183Z,52.90
2019-05-10T03:11:34.396Z,53.00
2019-05-10T03:14:16.579Z,53.20
2019-05-10T03:16:54.775Z,52.80
2019-05-10T03:19:29.173Z,52.60
2019-05-10T03:22:09.836Z,52.50
2019-05-10T03:24:44.217Z,53.10
2019-05-10T03:27:18.579Z,52.40
2019-05-10T03:29:52.828Z,52.30
2019-05-10T03:32:28.286Z,51.70
2019-05-10T03:35:02.759Z,51.60
2019-05-10T03:37:37.354Z,51.00
2019-05-10T03:40:11.617Z,50.90
2019-05-10T03:42:46.226Z,50.30
2019-05-10T03:45:20.940Z,50.40
2019-05-10T03:47:55.442Z,50.30
2019-05-10T03:50:29.737Z,50.00
2019-05-10T03:53:04.061Z,50.10
2019-05-10T03:55:38.383Z,50.10
2019-05-10T03:58:12.699Z,50.60
2019-05-10T04:00:47.658Z,50.40
2019-05-10T04:03:22.489Z,50.10
2019-05-10T04:06:08.851Z,50.40
2019-05-10T04:08:43.207Z,50.70
2019-05-10T04:11:17.478Z,50.50
2019-05-10T04:13:51.894Z,50.90
2019-05-10T04:16:27.602Z,50.80
2019-05-10T04:19:01.960Z,50.40
2019-05-10T04:21:36.261Z,50.50
2019-05-10T04:24:10.589Z,50.10
2019-05-10T04:26:45.387Z,50.10
2019-05-10T04:29:21.643Z,50.30
2019-05-10T04:31:57.142Z,49.90
2019-05-10T04:34:32.765Z,50.00
2019-05-10T04:37:07.414Z,49.80
2019-05-10T04:39:42.203Z,49.90
2019-05-10T04:42:16.751Z,50.00
2019-05-10T04:44:53.387Z,49.50
2019-05-10T04:47:27.295Z,49.50
2019-05-10T04:50:02.929Z,48.80
2019-05-10T04:52:38.719Z,48.70
2019-05-10T04:55:13.279Z,48.70
2019-05-10T04:57:50.954Z,48.50
2019-05-10T05:00:23.446Z,48.60
2019-05-10T05:02:57.729Z,48.20
2019-05-10T05:05:32.059Z,47.80
2019-05-10T05:08:08.796Z,47.40
2019-05-10T05:13:25.992Z,47.50
2019-05-10T05:16:00.515Z,47.70
2019-05-10T05:18:34.968Z,47.20
2019-05-10T05:21:09.538Z,46.90
2019-05-10T05:23:51.674Z,46.60
2019-05-10T05:26:28.167Z,46.30
2019-05-10T05:29:02.267Z,46.80
2019-05-10T05:31:37.191Z,46.60
2019-05-10T05:34:11.676Z,46.10
2019-05-10T05:36:47.320Z,46.00
2019-05-10T05:39:21.892Z,44.90
2019-05-10T05:41:57.372Z,44.40
2019-05-10T05:44:32.890Z,43.60
2019-05-10T05:47:08.607Z,42.50
2019-05-10T05:49:43.359Z,41.90
2019-05-10T05:52:18.020Z,42.00
2019-05-10T05:54:52.997Z,41.40
2019-05-10T05:57:29.622Z,40.10
2019-05-10T06:00:06.702Z,40.40
2019-05-10T06:02:45.077Z,39.30
2019-05-10T06:05:32.814Z,39.00
2019-05-10T06:07:53.624Z,38.70
2019-05-10T06:10:56.833Z,39.10
2019-05-10T06:13:30.345Z,39.20
2019-05-10T06:16:06.786Z,37.60
2019-05-10T06:18:41.529Z,37.00
2019-05-10T06:21:17.991Z,37.60
2019-05-10T06:23:50.916Z,36.90
2019-05-10T06:26:28.616Z,36.40
2019-05-10T06:29:04.889Z,36.80
2019-05-10T06:31:39.647Z,36.70
2019-05-10T06:34:16.285Z,35.70
2019-05-10T06:36:56.145Z,35.30
2019-05-10T06:39:30.800Z,34.50
2019-05-10T06:42:06.801Z,34.00
2019-05-10T06:44:41.428Z,34.50
2019-05-10T06:47:16.948Z,34.10
2019-05-10T06:49:52.408Z,33.60
2019-05-10T06:52:29.761Z,34.10
2019-05-10T06:55:04.072Z,33.60
2019-05-10T06:57:40.001Z,33.70
2019-05-10T07:03:10.625Z,33.40
2019-05-10T07:05:45.251Z,32.20
2019-05-10T07:08:20.509Z,32.20
2019-05-10T07:10:54.946Z,32.00
2019-05-10T07:13:31.006Z,30.80
2019-05-10T07:16:06.983Z,31.40
2019-05-10T07:18:49.204Z,30.80
2019-05-10T07:21:25.906Z,31.00
2019-05-10T07:24:02.181Z,30.80
2019-05-10T07:26:38.433Z,30.80
2019-05-10T07:29:27.879Z,30.40
2019-05-10T07:31:48.733Z,30.70
2019-05-10T07:34:23.398Z,30.70
2019-05-10T07:37:01.971Z,30.60
2019-05-10T07:39:37.723Z,30.60
2019-05-10T07:42:18.533Z,30.30
2019-05-10T07:44:55.727Z,30.10
2019-05-10T07:47:32.500Z,29.80
2019-05-10T07:50:11.636Z,29.60
2019-05-10T07:52:50.213Z,29.80
2019-05-10T07:55:28.526Z,29.10
2019-05-10T07:58:05.075Z,29.40
2019-05-10T08:00:38.046Z,29.80
2019-05-10T08:03:17.499Z,29.30
2019-05-10T08:05:54.992Z,29.10
2019-05-10T08:08:25.693Z,29.80
2019-05-10T08:11:01.371Z,29.70
2019-05-10T08:13:35.608Z,28.40
2019-05-10T08:16:22.976Z,29.20
2019-05-10T08:19:00.998Z,29.40
2019-05-10T08:21:34.195Z,29.60
2019-05-10T08:24:22.233Z,27.30
2019-05-10T08:27:06.795Z,27.00
2019-05-10T08:29:33.045Z,26.60
2019-05-10T08:32:07.829Z,26.60
2019-05-10T08:34:51.649Z,26.50
2019-05-10T08:37:19.354Z,26.40
2019-05-10T08:39:56.013Z,26.50
2019-05-10T08:42:40.797Z,26.60
2019-05-10T08:45:08.966Z,26.80
2019-05-10T08:47:42.622Z,27.00
2019-05-10T08:50:42.232Z,27.10
2019-05-10T08:52:56.706Z,27.40
2019-05-10T08:55:28.284Z,27.20
2019-05-10T08:58:02.963Z,27.50
2019-05-10T09:00:49.669Z,27.30
2019-05-10T09:03:18.910Z,27.10
2019-05-10T09:05:53.702Z,26.90
2019-05-10T09:08:31.532Z,26.90
2019-05-10T09:11:06.588Z,27.10
2019-05-10T09:13:42.328Z,27.20
2019-05-10T09:16:15.966Z,27.10
2019-05-10T09:18:53.501Z,27.30
2019-05-10T09:21:32.689Z,27.60
2019-05-10T09:24:13.165Z,27.70
2019-05-10T09:26:54.830Z,27.60
2019-05-10T09:29:27.360Z,28.00
2019-05-10T09:32:04.045Z,28.10
2019-05-10T09:34:35.501Z,28.30
2019-05-10T09:37:16.075Z,28.20
2019-05-10T09:39:46.980Z,28.30
2019-05-10T09:42:26.481Z,28.50
2019-05-10T09:44:57.092Z,28.30
2019-05-10T09:47:32.980Z,28.40
2019-05-10T09:50:07.556Z,28.70
2019-05-10T09:52:44.263Z,28.90
2019-05-10T09:55:18.741Z,29.00
2019-05-10T09:57:53.203Z,29.20
2019-05-10T10:00:39.870Z,29.60
2019-05-10T10:03:14.109Z,29.50
2019-05-10T10:05:55.280Z,30.00
2019-05-10T10:08:28.101Z,30.10
2019-05-10T10:11:10.345Z,30.40
2019-05-10T10:13:40.827Z,30.30
2019-05-10T10:16:14.850Z,30.50
2019-05-10T10:18:49.744Z,30.70
2019-05-10T10:21:34.916Z,30.80
2019-05-10T10:24:12.724Z,30.70
2019-05-10T10:26:38.260Z,30.50
2019-05-10T10:29:13.731Z,31.10
2019-05-10T10:31:55.529Z,30.90
2019-05-10T10:34:32.559Z,30.80
2019-05-10T10:37:07.728Z,30.70
2019-05-10T10:43:31.639Z,30.90
2019-05-10T10:46:11.946Z,31.00
2019-05-10T10:48:43.655Z,31.40
2019-05-10T10:51:18.161Z,31.60
2019-05-10T10:53:54.837Z,31.40
2019-05-10T10:56:28.314Z,31.70
2019-05-10T10:59:02.572Z,31.70
2019-05-10T11:01:49.184Z,31.80
2019-05-10T11:04:12.428Z,31.90
2019-05-10T11:06:46.601Z,32.10
2019-05-10T11:09:20.846Z,32.00
2019-05-10T11:11:55.979Z,32.10
2019-05-10T11:14:31.992Z,32.20
2019-05-10T11:17:05.956Z,32.50
2019-05-10T11:19:41.748Z,32.30
2019-05-10T11:22:16.415Z,32.30
2019-05-10T11:25:03.108Z,32.90
2019-05-10T11:27:30.820Z,32.40
2019-05-10T11:30:12.106Z,32.90
2019-05-10T11:32:48.378Z,32.70
2019-05-10T11:35:31.358Z,33.00
2019-05-10T11:38:12.901Z,32.80
2019-05-10T11:41:06.926Z,32.80
2019-05-10T11:43:39.017Z,33.00
2019-05-10T11:46:13.701Z,33.40
2019-05-10T11:49:01.587Z,32.80
2019-05-10T11:51:35.250Z,33.00
2019-05-10T11:54:11.156Z,32.90
2019-05-10T11:56:46.058Z,33.10
2019-05-10T11:59:21.831Z,33.60
2019-05-10T12:01:59.503Z,33.30
2019-05-10T12:07:12.662Z,34.10
2019-05-10T12:09:53.338Z,34.60
2019-05-10T12:14:57.910Z,34.50
2019-05-10T12:17:32.443Z,34.60
2019-05-10T12:20:12.534Z,34.50
2019-05-10T12:22:52.145Z,34.80
2019-05-10T12:25:42.541Z,35.40
2019-05-10T12:26:16.068Z,34.60
2019-05-10T12:26:49.078Z,33.20
2019-05-10T12:28:03.995Z,35.80
2019-05-10T12:30:47.051Z,36.60
2019-05-10T12:33:25.901Z,36.90
2019-05-10T12:35:58.457Z,36.60
2019-05-10T12:38:35.834Z,36.90
2019-05-10T12:41:09.721Z,37.30
2019-05-10T12:43:48.210Z,37.10
2019-05-10T12:46:22.557Z,36.60
2019-05-10T12:48:56.432Z,37.40
2019-05-10T12:51:31.325Z,37.70
2019-05-10T12:54:07.235Z,37.60
2019-05-10T12:56:46.095Z,37.50
2019-05-10T12:59:17.342Z,37.20
2019-05-10T13:01:53.188Z,37.60
2019-05-10T13:04:40.093Z,37.00
2019-05-10T13:07:08.933Z,37.40
2019-05-10T13:10:01.419Z,37.80
2019-05-10T13:12:37.054Z,37.80
2019-05-10T13:15:12.315Z,38.40
2019-05-10T13:17:53.174Z,38.90
2019-05-10T13:20:25.433Z,39.20
2019-05-10T13:22:59.811Z,39.10
2019-05-10T13:25:35.484Z,39.20
2019-05-10T13:28:11.751Z,39.10
2019-05-10T13:30:47.703Z,39.00
2019-05-10T13:33:29.020Z,39.50
2019-05-10T13:35:58.581Z,39.00
2019-05-10T13:38:36.947Z,38.90
2019-05-10T13:41:17.789Z,39.40
2019-05-10T13:43:59.046Z,39.80
2019-05-10T13:46:30.589Z,40.10
2019-05-10T13:49:07.996Z,40.40
2019-05-10T13:51:42.181Z,40.80
2019-05-10T13:54:19.306Z,41.00
2019-05-10T13:56:56.022Z,41.00
2019-05-10T13:59:30.221Z,41.10
2019-05-10T14:02:09.817Z,41.40
2019-05-10T14:04:44.545Z,41.20
2019-05-10T14:07:21.415Z,41.50
2019-05-10T14:09:59.451Z,41.50
2019-05-10T14:12:35.283Z,41.50
2019-05-10T14:15:13.837Z,41.70
2019-05-10T14:17:49.894Z,41.50
2019-05-10T14:20:27.664Z,41.30
2019-05-10T14:23:03.557Z,41.50
2019-05-10T14:25:39.335Z,41.80
2019-05-10T14:28:18.219Z,42.10
2019-05-10T14:30:58.554Z,42.40
2019-05-10T14:33:33.852Z,42.60
2019-05-10T14:36:12.505Z,42.80
2019-05-10T14:38:53.863Z,42.70
2019-05-10T14:41:29.736Z,42.60
2019-05-10T14:44:05.558Z,42.20
2019-05-10T14:46:40.219Z,42.40
2019-05-10T14:49:18.940Z,42.70
2019-05-10T14:51:59.313Z,43.00
2019-05-10T14:54:43.266Z,42.80
2019-05-10T14:57:09.077Z,43.20
2019-05-10T14:59:46.286Z,43.10
2019-05-10T15:02:25.625Z,43.30
2019-05-10T15:05:01.808Z,43.40
2019-05-10T15:07:37.059Z,43.00
2019-05-10T15:10:11.903Z,43.00
2019-05-10T15:12:50.015Z,42.60
2019-05-10T15:15:24.729Z,42.60
2019-05-10T15:18:03.595Z,43.30
2019-05-10T15:20:38.556Z,43.40
2019-05-10T15:23:17.511Z,43.10
2019-05-10T15:25:57.534Z,43.20
2019-05-10T15:28:34.534Z,43.80
2019-05-10T15:31:07.112Z,43.80
2019-05-10T15:33:43.079Z,43.20
2019-05-10T15:36:23.665Z,43.00
2019-05-10T15:38:55.027Z,43.40
2019-05-10T15:41:33.318Z,43.40
2019-05-10T15:44:09.136Z,43.50
2019-05-10T15:46:51.957Z,43.50
2019-05-10T15:49:34.666Z,43.40
2019-05-10T15:52:19.102Z,43.60
2019-05-10T15:54:55.384Z,43.60
2019-05-10T15:57:32.546Z,43.60
2019-05-10T16:00:10.496Z,44.20
2019-05-10T16:02:47.304Z,44.40
2019-05-10T16:05:42.426Z,44.80
2019-05-10T16:08:04.686Z,44.70
2019-05-10T16:10:40.912Z,44.40
2019-05-10T16:13:23.275Z,44.50
2019-05-10T16:15:57.623Z,44.80
2019-05-10T16:18:33.641Z,44.40
2019-05-10T16:21:15.109Z,44.50
2019-05-10T16:23:49.680Z,45.00
2019-05-10T16:26:27.287Z,45.00
2019-05-10T16:29:04.491Z,45.40
2019-05-10T16:31:41.521Z,45.00
2019-05-10T16:34:16.214Z,45.40
2019-05-10T16:36:51.710Z,45.90
2019-05-10T16:39:28.481Z,46.80
2019-05-10T16:42:05.865Z,47.40
2019-05-10T16:44:40.574Z,47.60
2019-05-10T16:47:17.712Z,48.40
2019-05-10T16:49:55.019Z,48.10
2019-05-10T16:52:29.314Z,48.00
2019-05-10T16:55:05.815Z,48.00
2019-05-10T16:57:42.647Z,48.10
2019-05-10T17:00:22.140Z,48.70
2019-05-10T17:03:13.238Z,49.10
2019-05-10T17:05:53.077Z,48.80
2019-05-10T17:08:30.822Z,47.50
2019-05-10T17:11:09.603Z,48.30
2019-05-10T17:13:41.661Z,48.60
2019-05-10T17:16:16.985Z,48.90
2019-05-10T17:18:55.430Z,49.40
2019-05-10T17:21:30.388Z,49.70
2019-05-10T17:24:05.539Z,50.20
2019-05-10T17:26:42.011Z,49.90
2019-05-10T17:29:16.287Z,49.70
2019-05-10T17:31:51.882Z,50.00
2019-05-10T17:34:29.547Z,49.90
2019-05-10T17:37:05.714Z,49.30
2019-05-10T17:39:46.780Z,49.30
2019-05-10T17:42:21.745Z,49.30
2019-05-10T17:45:01.678Z,49.70
2019-05-10T17:47:32.457Z,50.00
2019-05-10T17:50:11.021Z,50.00
2019-05-10T17:52:46.705Z,49.90
2019-05-10T17:55:26.413Z,50.60
2019-05-10T17:58:04.038Z,51.10
2019-05-10T18:00:50.292Z,51.30
2019-05-10T18:03:25.885Z,51.30
2019-05-10T18:06:00.013Z,51.60
2019-05-10T18:08:39.084Z,51.40
2019-05-10T18:11:13.813Z,52.20
2019-05-10T18:13:48.195Z,52.00
2019-05-10T18:16:22.858Z,51.00
2019-05-10T18:18:58.414Z,51.40
2019-05-10T18:21:32.909Z,51.60
2019-05-10T18:24:08.457Z,51.90
2019-05-10T18:26:43.173Z,52.00
2019-05-10T18:29:17.495Z,52.50
2019-05-10T18:31:55.868Z,53.00
2019-05-10T18:34:33.070Z,52.50
2019-05-10T18:37:05.436Z,52.60
2019-05-10T18:39:47.162Z,52.80
2019-05-10T18:42:18.775Z,52.50
2019-05-10T18:44:55.456Z,51.60
2019-05-10T18:47:31.898Z,51.40
2019-05-10T18:50:09.136Z,52.40
2019-05-10T18:52:44.857Z,52.10
2019-05-10T18:55:21.323Z,52.90
2019-05-10T18:57:56.866Z,52.70
2019-05-10T19:00:31.192Z,51.60
2019-05-10T19:03:09.172Z,52.90
2019-05-10T19:05:48.963Z,52.60
2019-05-10T19:08:25.738Z,52.10
2019-05-10T19:11:00.344Z,52.60
2019-05-10T19:13:46.755Z,52.80
2019-05-10T19:16:11.131Z,52.60
2019-05-10T19:18:45.307Z,53.00
2019-05-10T19:21:19.660Z,53.70
2019-05-10T19:23:53.925Z,53.40
2019-05-10T19:26:29.459Z,53.80
2019-05-10T19:29:05.015Z,53.60
2019-05-10T19:31:40.421Z,53.90
2019-05-10T19:34:17.085Z,53.90
2019-05-10T19:36:50.678Z,53.80
2019-05-10T19:39:24.949Z,53.70
2019-05-10T19:42:04.169Z,54.00
2019-05-10T19:44:40.495Z,54.40
2019-05-10T19:47:17.811Z,54.60
2019-05-10T19:49:51.734Z,54.10
2019-05-10T19:52:26.099Z,53.60
2019-05-10T19:54:59.012Z,53.50
2019-05-10T19:57:33.211Z,53.80
2019-05-10T20:00:08.562Z,53.80
2019-05-10T20:02:42.810Z,54.10
2019-05-10T20:05:17.256Z,54.20
2019-05-10T20:07:51.977Z,53.40
2019-05-10T20:10:26.061Z,53.90
2019-05-10T20:13:00.240Z,54.30
2019-05-10T20:15:34.470Z,54.20
2019-05-10T20:18:13.621Z,54.80
2019-05-10T20:20:51.299Z,54.80
2019-05-10T20:23:25.676Z,54.90
2019-05-10T20:26:00.875Z,54.50
2019-05-10T20:28:35.055Z,54.40
2019-05-10T20:31:09.598Z,54.70
2019-05-10T20:33:43.878Z,55.40
2019-05-10T20:36:18.059Z,55.30
2019-05-10T20:38:52.287Z,55.20
2019-05-10T20:41:26.547Z,55.50
2019-05-10T20:44:00.765Z,55.80
2019-05-10T20:46:34.916Z,55.50
2019-05-10T20:49:09.229Z,55.60
2019-05-10T20:51:44.654Z,54.90
2019-05-10T20:54:18.872Z,55.40
2019-05-10T20:56:53.181Z,55.90
2019-05-10T20:59:27.382Z,55.70
2019-05-10T21:02:01.595Z,55.80
2019-05-10T21:04:35.865Z,55.80
2019-05-10T21:07:10.308Z,55.90
2019-05-10T21:09:44.620Z,56.00
2019-05-10T21:12:18.866Z,56.10
2019-05-10T21:14:53.676Z,56.30
2019-05-10T21:17:27.835Z,56.10
2019-05-10T21:20:02.048Z,56.50
2019-05-10T21:22:36.298Z,56.50
2019-05-10T21:25:12.357Z,56.10
2019-05-10T21:27:46.662Z,56.10
2019-05-10T21:30:20.941Z,56.20
2019-05-10T21:32:55.146Z,55.90
2019-05-10T21:35:30.426Z,56.50
2019-05-10T21:38:04.923Z,56.50
2019-05-10T21:40:40.335Z,56.70
2019-05-10T21:43:14.551Z,56.70
2019-05-10T21:45:48.850Z,56.60
2019-05-10T21:48:23.067Z,56.30
2019-05-10T21:50:57.428Z,56.70
2019-05-10T21:53:31.758Z,56.50
2019-05-10T21:56:06.168Z,56.40
2019-05-10T21:58:40.463Z,56.70
2019-05-10T22:01:14.638Z,56.60
2019-05-10T22:03:49.476Z,56.70
2019-05-10T22:06:23.644Z,56.70
2019-05-10T22:08:57.825Z,56.80
2019-05-10T22:11:32.147Z,57.30
2019-05-10T22:14:06.350Z,56.90
2019-05-10T22:16:40.610Z,57.10
2019-05-10T22:19:14.740Z,57.30
2019-05-10T22:21:49.019Z,57.20
2019-05-10T22:24:23.190Z,57.50
2019-05-10T22:26:57.271Z,57.60
2019-05-10T22:29:31.533Z,58.00
2019-05-10T22:32:05.786Z,58.30
2019-05-10T22:34:39.962Z,58.30
2019-05-10T22:37:14.256Z,58.20
2019-05-10T22:39:48.503Z,58.50
2019-05-10T22:42:23.074Z,58.10
2019-05-10T22:44:57.267Z,58.00
2019-05-10T22:47:31.451Z,58.50
2019-05-10T22:50:06.654Z,58.40
2019-05-10T22:52:41.052Z,58.60
2019-05-10T22:55:15.496Z,58.20
2019-05-10T22:57:50.031Z,58.00
2019-05-10T23:00:24.406Z,57.70
2019-05-10T23:03:01.770Z,57.50
2019-05-10T23:05:36.072Z,57.50
2019-05-10T23:08:10.365Z,57.50
2019-05-10T23:10:44.493Z,57.50
2019-05-10T23:13:18.834Z,57.60
2019-05-10T23:15:53.293Z,57.10
2019-05-10T23:18:27.571Z,57.10
2019-05-10T23:21:01.864Z,56.70
2019-05-10T23:23:35.967Z,56.70
2019-05-10T23:26:10.211Z,56.70
2019-05-10T23:28:44.377Z,56.40
2019-05-10T23:31:18.759Z,56.40
2019-05-10T23:33:52.994Z,56.40
2019-05-10T23:36:31.472Z,56.20
2019-05-10T23:39:06.252Z,56.00
2019-05-10T23:41:52.847Z,56.30
2019-05-10T23:44:27.032Z,57.20
2019-05-10T23:47:01.339Z,57.00
2019-05-10T23:49:35.544Z,57.30
2019-05-10T23:52:09.910Z,56.90
2019-05-10T23:54:45.847Z,56.80
2019-05-10T23:57:20.142Z,57.50
2019-05-10T23:59:54.433Z,57.40
